sensor_id;sensor_type;location;lat;lon;timestamp;P1;durP1;ratioP1;P2;durP2;ratioP2
22425;SDS011;11380;50.822;15.790;2023-06-19T00:04:38;61.83;;;53.97;;
22425;SDS011;11380;50.822;15.790;2023-06-19T00:09:45;61.13;;;53.77;;
22425;SDS011;11380;50.822;15.790;2023-06-19T00:14:52;59.70;;;53.30;;
22425;SDS011;11380;50.822;15.790;2023-06-19T00:20:00;60.30;;;53.67;;
22425;SDS011;11380;50.822;15.790;2023-06-19T00:25:07;60.73;;;54.13;;
22425;SDS011;11380;50.822;15.790;2023-06-19T00:30:15;60.95;;;54.25;;
22425;SDS011;11380;50.822;15.790;2023-06-19T00:35:22;61.30;;;54.60;;
22425;SDS011;11380;50.822;15.790;2023-06-19T00:40:30;65.60;;;55.67;;
22425;SDS011;11380;50.822;15.790;2023-06-19T00:45:41;61.60;;;54.67;;
22425;SDS011;11380;50.822;15.790;2023-06-19T00:50:47;60.90;;;54.30;;
22425;SDS011;11380;50.822;15.790;2023-06-19T00:55:57;61.10;;;53.93;;
22425;SDS011;11380;50.822;15.790;2023-06-19T01:01:05;60.73;;;54.13;;
22425;SDS011;11380;50.822;15.790;2023-06-19T01:06:13;60.30;;;53.60;;
22425;SDS011;11380;50.822;15.790;2023-06-19T01:11:33;59.98;;;53.38;;
22425;SDS011;11380;50.822;15.790;2023-06-19T01:16:39;60.13;;;53.67;;
22425;SDS011;11380;50.822;15.790;2023-06-19T01:21:47;60.13;;;53.63;;
22425;SDS011;11380;50.822;15.790;2023-06-19T01:26:54;60.00;;;53.50;;
22425;SDS011;11380;50.822;15.790;2023-06-19T01:32:06;60.20;;;53.63;;
22425;SDS011;11380;50.822;15.790;2023-06-19T01:37:13;60.40;;;53.90;;
22425;SDS011;11380;50.822;15.790;2023-06-19T01:42:21;59.50;;;53.00;;
22425;SDS011;11380;50.822;15.790;2023-06-19T01:47:28;59.85;;;53.45;;
22425;SDS011;11380;50.822;15.790;2023-06-19T01:52:36;62.07;;;53.93;;
22425;SDS011;11380;50.822;15.790;2023-06-19T01:57:45;59.03;;;52.73;;
22425;SDS011;11380;50.822;15.790;2023-06-19T02:02:52;59.23;;;52.93;;
22425;SDS011;11380;50.822;15.790;2023-06-19T02:07:59;59.00;;;52.67;;
22425;SDS011;11380;50.822;15.790;2023-06-19T02:13:07;59.43;;;53.03;;
22425;SDS011;11380;50.822;15.790;2023-06-19T02:18:14;59.20;;;52.90;;
22425;SDS011;11380;50.822;15.790;2023-06-19T02:28:27;58.38;;;52.15;;
22425;SDS011;11380;50.822;15.790;2023-06-19T02:33:35;58.50;;;52.27;;
22425;SDS011;11380;50.822;15.790;2023-06-19T02:38:42;59.30;;;52.87;;
22425;SDS011;11380;50.822;15.790;2023-06-19T02:43:50;59.00;;;52.80;;
22425;SDS011;11380;50.822;15.790;2023-06-19T02:48:58;58.73;;;52.50;;
22425;SDS011;11380;50.822;15.790;2023-06-19T02:54:05;63.60;;;52.93;;
22425;SDS011;11380;50.822;15.790;2023-06-19T02:59:13;59.27;;;52.97;;
22425;SDS011;11380;50.822;15.790;2023-06-19T03:04:20;58.70;;;52.53;;
22425;SDS011;11380;50.822;15.790;2023-06-19T03:09:32;59.27;;;52.77;;
22425;SDS011;11380;50.822;15.790;2023-06-19T03:14:39;59.53;;;53.10;;
22425;SDS011;11380;50.822;15.790;2023-06-19T03:19:47;59.10;;;52.70;;
22425;SDS011;11380;50.822;15.790;2023-06-19T03:24:54;58.50;;;52.30;;
22425;SDS011;11380;50.822;15.790;2023-06-19T03:30:01;59.70;;;53.30;;
22425;SDS011;11380;50.822;15.790;2023-06-19T03:35:10;58.87;;;52.57;;
22425;SDS011;11380;50.822;15.790;2023-06-19T03:40:19;59.88;;;53.38;;
22425;SDS011;11380;50.822;15.790;2023-06-19T03:45:26;59.50;;;52.90;;
22425;SDS011;11380;50.822;15.790;2023-06-19T03:50:34;60.23;;;53.73;;
22425;SDS011;11380;50.822;15.790;2023-06-19T03:55:41;59.83;;;53.43;;
22425;SDS011;11380;50.822;15.790;2023-06-19T04:00:48;60.97;;;54.33;;
22425;SDS011;11380;50.822;15.790;2023-06-19T04:05:56;60.30;;;53.90;;
22425;SDS011;11380;50.822;15.790;2023-06-19T04:11:03;60.57;;;54.03;;
22425;SDS011;11380;50.822;15.790;2023-06-19T04:16:10;60.27;;;53.80;;
22425;SDS011;11380;50.822;15.790;2023-06-19T04:26:23;60.83;;;54.13;;
22425;SDS011;11380;50.822;15.790;2023-06-19T04:31:30;61.00;;;54.30;;
22425;SDS011;11380;50.822;15.790;2023-06-19T04:36:38;61.23;;;54.57;;
22425;SDS011;11380;50.822;15.790;2023-06-19T04:41:45;61.67;;;54.70;;
22425;SDS011;11380;50.822;15.790;2023-06-19T04:46:52;62.30;;;55.50;;
22425;SDS011;11380;50.822;15.790;2023-06-19T04:52:00;64.90;;;55.40;;
22425;SDS011;11380;50.822;15.790;2023-06-19T04:57:08;69.07;;;56.73;;
22425;SDS011;11380;50.822;15.790;2023-06-19T05:02:15;69.97;;;57.20;;
22425;SDS011;11380;50.822;15.790;2023-06-19T05:07:22;65.00;;;55.78;;
22425;SDS011;11380;50.822;15.790;2023-06-19T05:12:28;65.00;;;56.75;;
22425;SDS011;11380;50.822;15.790;2023-06-19T05:17:36;77.40;;;58.00;;
22425;SDS011;11380;50.822;15.790;2023-06-19T05:22:43;66.60;;;56.77;;
22425;SDS011;11380;50.822;15.790;2023-06-19T05:27:49;66.23;;;57.23;;
22425;SDS011;11380;50.822;15.790;2023-06-19T05:32:57;65.10;;;56.13;;
22425;SDS011;11380;50.822;15.790;2023-06-19T05:38:04;66.43;;;57.17;;
22425;SDS011;11380;50.822;15.790;2023-06-19T05:43:14;67.10;;;57.24;;
22425;SDS011;11380;50.822;15.790;2023-06-19T05:48:20;68.37;;;57.73;;
22425;SDS011;11380;50.822;15.790;2023-06-19T05:53:29;67.30;;;57.60;;
22425;SDS011;11380;50.822;15.790;2023-06-19T05:58:36;66.30;;;56.90;;
22425;SDS011;11380;50.822;15.790;2023-06-19T06:03:43;70.43;;;57.43;;
22425;SDS011;11380;50.822;15.790;2023-06-19T06:08:51;70.00;;;59.03;;
22425;SDS011;11380;50.822;15.790;2023-06-19T06:13:59;69.67;;;58.73;;
22425;SDS011;11380;50.822;15.790;2023-06-19T06:19:06;70.50;;;58.50;;
22425;SDS011;11380;50.822;15.790;2023-06-19T06:24:14;71.60;;;59.13;;
22425;SDS011;11380;50.822;15.790;2023-06-19T06:29:22;70.90;;;58.63;;
22425;SDS011;11380;50.822;15.790;2023-06-19T06:34:28;70.57;;;58.57;;
22425;SDS011;11380;50.822;15.790;2023-06-19T06:39:37;70.60;;;58.57;;
22425;SDS011;11380;50.822;15.790;2023-06-19T06:44:44;72.43;;;58.47;;
22425;SDS011;11380;50.822;15.790;2023-06-19T06:49:52;72.43;;;57.27;;
22425;SDS011;11380;50.822;15.790;2023-06-19T06:54:59;70.40;;;58.00;;
22425;SDS011;11380;50.822;15.790;2023-06-19T07:00:07;69.30;;;58.17;;
22425;SDS011;11380;50.822;15.790;2023-06-19T07:05:15;69.27;;;57.77;;
22425;SDS011;11380;50.822;15.790;2023-06-19T07:10:22;70.97;;;57.87;;
22425;SDS011;11380;50.822;15.790;2023-06-19T07:15:30;70.87;;;58.67;;
22425;SDS011;11380;50.822;15.790;2023-06-19T07:20:37;70.63;;;58.77;;
22425;SDS011;11380;50.822;15.790;2023-06-19T07:25:45;71.20;;;59.10;;
22425;SDS011;11380;50.822;15.790;2023-06-19T07:30:52;72.07;;;59.07;;
22425;SDS011;11380;50.822;15.790;2023-06-19T07:35:59;80.10;;;62.67;;
22425;SDS011;11380;50.822;15.790;2023-06-19T07:41:10;75.33;;;61.53;;
22425;SDS011;11380;50.822;15.790;2023-06-19T07:46:17;74.14;;;61.04;;
22425;SDS011;11380;50.822;15.790;2023-06-19T07:51:24;77.82;;;62.03;;
22425;SDS011;11380;50.822;15.790;2023-06-19T07:56:32;73.95;;;61.10;;
22425;SDS011;11380;50.822;15.790;2023-06-19T08:01:39;76.67;;;61.97;;
22425;SDS011;11380;50.822;15.790;2023-06-19T08:06:46;74.33;;;60.67;;
22425;SDS011;11380;50.822;15.790;2023-06-19T08:11:53;75.07;;;60.33;;
22425;SDS011;11380;50.822;15.790;2023-06-19T08:17:02;75.55;;;61.90;;
22425;SDS011;11380;50.822;15.790;2023-06-19T08:22:09;75.90;;;61.20;;
22425;SDS011;11380;50.822;15.790;2023-06-19T08:27:16;77.60;;;62.50;;
22425;SDS011;11380;50.822;15.790;2023-06-19T08:32:23;76.40;;;62.23;;
22425;SDS011;11380;50.822;15.790;2023-06-19T08:37:31;75.12;;;60.78;;
22425;SDS011;11380;50.822;15.790;2023-06-19T08:42:39;74.03;;;60.53;;
22425;SDS011;11380;50.822;15.790;2023-06-19T08:47:48;73.13;;;60.40;;
22425;SDS011;11380;50.822;15.790;2023-06-19T08:52:54;77.07;;;62.87;;
22425;SDS011;11380;50.822;15.790;2023-06-19T08:58:03;75.97;;;61.47;;
22425;SDS011;11380;50.822;15.790;2023-06-19T09:03:10;75.93;;;60.00;;
22425;SDS011;11380;50.822;15.790;2023-06-19T09:08:20;74.77;;;60.10;;
22425;SDS011;11380;50.822;15.790;2023-06-19T09:13:28;73.80;;;59.30;;
22425;SDS011;11380;50.822;15.790;2023-06-19T09:18:44;75.73;;;60.03;;
22425;SDS011;11380;50.822;15.790;2023-06-19T09:23:52;74.27;;;59.50;;
22425;SDS011;11380;50.822;15.790;2023-06-19T09:29:09;73.63;;;60.10;;
22425;SDS011;11380;50.822;15.790;2023-06-19T09:34:24;73.62;;;59.70;;
22425;SDS011;11380;50.822;15.790;2023-06-19T09:39:31;75.12;;;59.90;;
22425;SDS011;11380;50.822;15.790;2023-06-19T09:44:42;75.30;;;60.27;;
22425;SDS011;11380;50.822;15.790;2023-06-19T09:49:53;76.40;;;60.60;;
22425;SDS011;11380;50.822;15.790;2023-06-19T09:55:03;75.83;;;60.50;;
22425;SDS011;11380;50.822;15.790;2023-06-19T10:00:14;76.23;;;61.03;;
22425;SDS011;11380;50.822;15.790;2023-06-19T10:05:30;78.63;;;61.27;;
22425;SDS011;11380;50.822;15.790;2023-06-19T10:10:46;77.57;;;61.37;;
22425;SDS011;11380;50.822;15.790;2023-06-19T10:15:54;77.77;;;61.67;;
22425;SDS011;11380;50.822;15.790;2023-06-19T10:21:01;78.72;;;63.05;;
22425;SDS011;11380;50.822;15.790;2023-06-19T10:26:08;77.20;;;62.53;;
22425;SDS011;11380;50.822;15.790;2023-06-19T10:31:18;75.93;;;61.80;;
22425;SDS011;11380;50.822;15.790;2023-06-19T10:36:25;76.10;;;61.55;;
22425;SDS011;11380;50.822;15.790;2023-06-19T10:41:32;78.02;;;62.40;;
22425;SDS011;11380;50.822;15.790;2023-06-19T10:46:40;77.40;;;62.23;;
22425;SDS011;11380;50.822;15.790;2023-06-19T10:51:48;76.80;;;61.43;;
22425;SDS011;11380;50.822;15.790;2023-06-19T10:56:55;76.67;;;61.60;;
22425;SDS011;11380;50.822;15.790;2023-06-19T11:02:02;77.03;;;61.68;;
22425;SDS011;11380;50.822;15.790;2023-06-19T11:07:10;76.77;;;61.80;;
22425;SDS011;11380;50.822;15.790;2023-06-19T11:12:18;78.30;;;61.00;;
22425;SDS011;11380;50.822;15.790;2023-06-19T11:17:27;75.67;;;61.18;;
22425;SDS011;11380;50.822;15.790;2023-06-19T11:22:36;75.32;;;60.95;;
22425;SDS011;11380;50.822;15.790;2023-06-19T11:27:44;76.20;;;60.77;;
22425;SDS011;11380;50.822;15.790;2023-06-19T11:32:54;74.87;;;60.73;;
22425;SDS011;11380;50.822;15.790;2023-06-19T11:38:01;75.67;;;61.25;;
22425;SDS011;11380;50.822;15.790;2023-06-19T11:43:11;75.37;;;60.67;;
22425;SDS011;11380;50.822;15.790;2023-06-19T11:48:21;74.62;;;61.02;;
22425;SDS011;11380;50.822;15.790;2023-06-19T11:53:30;75.57;;;61.40;;
22425;SDS011;11380;50.822;15.790;2023-06-19T11:58:37;78.03;;;61.73;;
22425;SDS011;11380;50.822;15.790;2023-06-19T12:03:46;76.50;;;61.55;;
22425;SDS011;11380;50.822;15.790;2023-06-19T12:08:53;75.80;;;61.30;;
22425;SDS011;11380;50.822;15.790;2023-06-19T12:14:01;76.30;;;61.63;;
22425;SDS011;11380;50.822;15.790;2023-06-19T12:19:09;76.53;;;61.67;;
22425;SDS011;11380;50.822;15.790;2023-06-19T12:24:18;76.86;;;62.64;;
22425;SDS011;11380;50.822;15.790;2023-06-19T12:29:25;76.90;;;61.65;;
22425;SDS011;11380;50.822;15.790;2023-06-19T12:34:32;77.63;;;63.13;;
22425;SDS011;11380;50.822;15.790;2023-06-19T12:39:40;76.57;;;61.93;;
22425;SDS011;11380;50.822;15.790;2023-06-19T12:44:47;75.73;;;61.57;;
22425;SDS011;11380;50.822;15.790;2023-06-19T12:49:54;78.57;;;62.83;;
22425;SDS011;11380;50.822;15.790;2023-06-19T12:55:01;76.45;;;61.37;;
22425;SDS011;11380;50.822;15.790;2023-06-19T13:00:11;74.33;;;60.60;;
22425;SDS011;11380;50.822;15.790;2023-06-19T13:05:19;78.27;;;62.03;;
22425;SDS011;11380;50.822;15.790;2023-06-19T13:10:28;76.62;;;61.58;;
22425;SDS011;11380;50.822;15.790;2023-06-19T13:15:36;75.65;;;60.85;;
22425;SDS011;11380;50.822;15.790;2023-06-19T13:20:43;80.57;;;62.27;;
22425;SDS011;11380;50.822;15.790;2023-06-19T13:25:52;77.87;;;61.17;;
22425;SDS011;11380;50.822;15.790;2023-06-19T13:30:59;78.17;;;61.77;;
22425;SDS011;11380;50.822;15.790;2023-06-19T13:36:08;77.33;;;62.10;;
22425;SDS011;11380;50.822;15.790;2023-06-19T13:41:15;76.37;;;61.37;;
22425;SDS011;11380;50.822;15.790;2023-06-19T13:46:22;78.57;;;62.10;;
22425;SDS011;11380;50.822;15.790;2023-06-19T13:51:29;77.07;;;61.77;;
22425;SDS011;11380;50.822;15.790;2023-06-19T13:56:36;77.00;;;61.40;;
22425;SDS011;11380;50.822;15.790;2023-06-19T14:01:44;76.20;;;61.80;;
22425;SDS011;11380;50.822;15.790;2023-06-19T14:06:51;77.93;;;61.43;;
22425;SDS011;11380;50.822;15.790;2023-06-19T14:11:59;76.63;;;60.87;;
22425;SDS011;11380;50.822;15.790;2023-06-19T14:17:06;76.57;;;61.73;;
22425;SDS011;11380;50.822;15.790;2023-06-19T14:22:14;80.85;;;62.23;;
22425;SDS011;11380;50.822;15.790;2023-06-19T14:27:21;76.97;;;62.08;;
22425;SDS011;11380;50.822;15.790;2023-06-19T14:32:28;76.87;;;61.47;;
22425;SDS011;11380;50.822;15.790;2023-06-19T14:37:36;75.57;;;61.20;;
22425;SDS011;11380;50.822;15.790;2023-06-19T14:42:44;79.47;;;62.70;;
22425;SDS011;11380;50.822;15.790;2023-06-19T14:47:51;78.40;;;61.43;;
22425;SDS011;11380;50.822;15.790;2023-06-19T14:52:58;77.82;;;61.77;;
22425;SDS011;11380;50.822;15.790;2023-06-19T14:58:06;78.05;;;62.48;;
22425;SDS011;11380;50.822;15.790;2023-06-19T15:03:13;77.42;;;62.45;;
22425;SDS011;11380;50.822;15.790;2023-06-19T15:08:20;77.87;;;62.70;;
22425;SDS011;11380;50.822;15.790;2023-06-19T15:13:28;77.00;;;61.37;;
22425;SDS011;11380;50.822;15.790;2023-06-19T15:18:36;76.00;;;62.00;;
22425;SDS011;11380;50.822;15.790;2023-06-19T15:23:44;78.80;;;63.87;;
22425;SDS011;11380;50.822;15.790;2023-06-19T15:28:51;76.93;;;62.40;;
22425;SDS011;11380;50.822;15.790;2023-06-19T15:33:58;78.00;;;63.57;;
22425;SDS011;11380;50.822;15.790;2023-06-19T15:39:05;80.60;;;63.53;;
22425;SDS011;11380;50.822;15.790;2023-06-19T15:44:14;76.97;;;62.80;;
22425;SDS011;11380;50.822;15.790;2023-06-19T15:49:20;79.40;;;63.43;;
22425;SDS011;11380;50.822;15.790;2023-06-19T15:54:27;78.43;;;63.70;;
22425;SDS011;11380;50.822;15.790;2023-06-19T15:59:35;77.80;;;61.87;;
22425;SDS011;11380;50.822;15.790;2023-06-19T16:04:42;75.43;;;61.50;;
22425;SDS011;11380;50.822;15.790;2023-06-19T16:09:50;78.57;;;62.43;;
22425;SDS011;11380;50.822;15.790;2023-06-19T16:14:59;76.90;;;62.07;;
22425;SDS011;11380;50.822;15.790;2023-06-19T16:20:06;75.97;;;61.77;;
22425;SDS011;11380;50.822;15.790;2023-06-19T16:25:15;76.67;;;61.97;;
22425;SDS011;11380;50.822;15.790;2023-06-19T16:30:22;75.15;;;61.85;;
22425;SDS011;11380;50.822;15.790;2023-06-19T16:35:30;79.07;;;62.47;;
22425;SDS011;11380;50.822;15.790;2023-06-19T16:40:38;78.27;;;61.30;;
22425;SDS011;11380;50.822;15.790;2023-06-19T16:45:45;77.27;;;62.47;;
22425;SDS011;11380;50.822;15.790;2023-06-19T16:50:52;76.17;;;61.30;;
22425;SDS011;11380;50.822;15.790;2023-06-19T16:55:59;77.47;;;62.43;;
22425;SDS011;11380;50.822;15.790;2023-06-19T17:01:07;80.83;;;62.45;;
22425;SDS011;11380;50.822;15.790;2023-06-19T17:06:16;78.47;;;62.33;;
22425;SDS011;11380;50.822;15.790;2023-06-19T17:11:24;78.30;;;62.40;;
22425;SDS011;11380;50.822;15.790;2023-06-19T17:16:31;83.60;;;63.20;;
22425;SDS011;11380;50.822;15.790;2023-06-19T17:21:38;79.57;;;63.13;;
22425;SDS011;11380;50.822;15.790;2023-06-19T17:26:46;78.63;;;63.07;;
22425;SDS011;11380;50.822;15.790;2023-06-19T17:31:56;78.13;;;63.33;;
22425;SDS011;11380;50.822;15.790;2023-06-19T17:37:03;78.60;;;63.43;;
22425;SDS011;11380;50.822;15.790;2023-06-19T17:42:11;80.77;;;64.00;;
22425;SDS011;11380;50.822;15.790;2023-06-19T17:47:18;77.88;;;62.08;;
22425;SDS011;11380;50.822;15.790;2023-06-19T17:52:25;77.65;;;62.50;;
22425;SDS011;11380;50.822;15.790;2023-06-19T17:57:35;81.53;;;63.23;;
22425;SDS011;11380;50.822;15.790;2023-06-19T18:02:42;77.37;;;62.50;;
22425;SDS011;11380;50.822;15.790;2023-06-19T18:07:50;76.25;;;61.95;;
22425;SDS011;11380;50.822;15.790;2023-06-19T18:12:57;77.53;;;62.10;;
22425;SDS011;11380;50.822;15.790;2023-06-19T18:18:05;77.70;;;62.37;;
22425;SDS011;11380;50.822;15.790;2023-06-19T18:23:14;78.46;;;63.02;;
22425;SDS011;11380;50.822;15.790;2023-06-19T18:28:21;78.97;;;63.70;;
22425;SDS011;11380;50.822;15.790;2023-06-19T18:33:28;79.55;;;62.88;;
22425;SDS011;11380;50.822;15.790;2023-06-19T18:38:37;76.05;;;62.45;;
22425;SDS011;11380;50.822;15.790;2023-06-19T18:43:45;77.30;;;62.33;;
22425;SDS011;11380;50.822;15.790;2023-06-19T18:48:52;76.77;;;62.30;;
22425;SDS011;11380;50.822;15.790;2023-06-19T18:53:59;77.00;;;62.37;;
22425;SDS011;11380;50.822;15.790;2023-06-19T18:59:07;79.53;;;62.50;;
22425;SDS011;11380;50.822;15.790;2023-06-19T19:04:15;76.92;;;63.42;;
22425;SDS011;11380;50.822;15.790;2023-06-19T19:09:22;78.45;;;63.42;;
22425;SDS011;11380;50.822;15.790;2023-06-19T19:14:30;76.67;;;63.10;;
22425;SDS011;11380;50.822;15.790;2023-06-19T19:19:37;75.53;;;61.97;;
22425;SDS011;11380;50.822;15.790;2023-06-19T19:24:45;79.13;;;63.20;;
22425;SDS011;11380;50.822;15.790;2023-06-19T19:29:52;79.83;;;62.90;;
22425;SDS011;11380;50.822;15.790;2023-06-19T19:35:01;79.63;;;63.70;;
22425;SDS011;11380;50.822;15.790;2023-06-19T19:40:08;78.57;;;63.87;;
22425;SDS011;11380;50.822;15.790;2023-06-19T19:45:17;78.57;;;62.80;;
22425;SDS011;11380;50.822;15.790;2023-06-19T19:50:24;76.50;;;62.93;;
22425;SDS011;11380;50.822;15.790;2023-06-19T19:55:32;75.90;;;62.10;;
22425;SDS011;11380;50.822;15.790;2023-06-19T20:00:38;84.70;;;62.53;;
22425;SDS011;11380;50.822;15.790;2023-06-19T20:05:48;77.05;;;62.58;;
22425;SDS011;11380;50.822;15.790;2023-06-19T20:10:55;75.13;;;61.37;;
22425;SDS011;11380;50.822;15.790;2023-06-19T20:16:02;77.13;;;61.40;;
22425;SDS011;11380;50.822;15.790;2023-06-19T20:21:10;75.00;;;60.67;;
22425;SDS011;11380;50.822;15.790;2023-06-19T20:26:17;74.17;;;61.07;;
22425;SDS011;11380;50.822;15.790;2023-06-19T20:31:25;73.40;;;59.83;;
22425;SDS011;11380;50.822;15.790;2023-06-19T20:36:32;73.80;;;59.73;;
22425;SDS011;11380;50.822;15.790;2023-06-19T20:41:39;72.20;;;59.70;;
22425;SDS011;11380;50.822;15.790;2023-06-19T20:46:49;72.08;;;60.25;;
22425;SDS011;11380;50.822;15.790;2023-06-19T20:51:57;75.93;;;60.80;;
22425;SDS011;11380;50.822;15.790;2023-06-19T20:57:06;102.23;;;62.80;;
22425;SDS011;11380;50.822;15.790;2023-06-19T21:02:14;77.67;;;61.45;;
22425;SDS011;11380;50.822;15.790;2023-06-19T21:07:21;70.90;;;59.67;;
22425;SDS011;11380;50.822;15.790;2023-06-19T21:12:29;72.63;;;59.37;;
22425;SDS011;11380;50.822;15.790;2023-06-19T21:17:37;72.03;;;59.10;;
22425;SDS011;11380;50.822;15.790;2023-06-19T21:22:44;72.13;;;59.33;;
22425;SDS011;11380;50.822;15.790;2023-06-19T21:27:52;71.30;;;59.27;;
22425;SDS011;11380;50.822;15.790;2023-06-19T21:32:59;74.03;;;59.53;;
22425;SDS011;11380;50.822;15.790;2023-06-19T21:38:06;70.97;;;59.10;;
22425;SDS011;11380;50.822;15.790;2023-06-19T21:43:15;70.83;;;59.90;;
22425;SDS011;11380;50.822;15.790;2023-06-19T21:48:23;70.45;;;58.58;;
22425;SDS011;11380;50.822;15.790;2023-06-19T21:53:32;70.97;;;59.48;;
22425;SDS011;11380;50.822;15.790;2023-06-19T21:58:39;69.30;;;58.67;;
22425;SDS011;11380;50.822;15.790;2023-06-19T22:03:47;70.92;;;59.75;;
22425;SDS011;11380;50.822;15.790;2023-06-19T22:08:54;71.77;;;58.98;;
22425;SDS011;11380;50.822;15.790;2023-06-19T22:14:03;70.63;;;59.93;;
22425;SDS011;11380;50.822;15.790;2023-06-19T22:19:10;70.00;;;58.87;;
22425;SDS011;11380;50.822;15.790;2023-06-19T22:24:17;70.90;;;58.80;;
22425;SDS011;11380;50.822;15.790;2023-06-19T22:29:28;68.57;;;58.23;;
22425;SDS011;11380;50.822;15.790;2023-06-19T22:34:35;68.67;;;59.07;;
22425;SDS011;11380;50.822;15.790;2023-06-19T22:39:43;69.73;;;58.27;;
22425;SDS011;11380;50.822;15.790;2023-06-19T22:44:50;68.87;;;58.33;;
22425;SDS011;11380;50.822;15.790;2023-06-19T22:49:58;70.37;;;58.40;;
22425;SDS011;11380;50.822;15.790;2023-06-19T22:55:07;68.63;;;58.77;;
22425;SDS011;11380;50.822;15.790;2023-06-19T23:00:15;69.55;;;58.45;;
22425;SDS011;11380;50.822;15.790;2023-06-19T23:05:22;68.67;;;58.37;;
22425;SDS011;11380;50.822;15.790;2023-06-19T23:10:30;69.60;;;58.43;;
22425;SDS011;11380;50.822;15.790;2023-06-19T23:15:37;68.50;;;58.57;;
22425;SDS011;11380;50.822;15.790;2023-06-19T23:20:44;67.83;;;58.53;;
22425;SDS011;11380;50.822;15.790;2023-06-19T23:25:52;68.67;;;59.00;;
22425;SDS011;11380;50.822;15.790;2023-06-19T23:30:59;70.00;;;58.83;;
22425;SDS011;11380;50.822;15.790;2023-06-19T23:36:07;67.17;;;58.37;;
22425;SDS011;11380;50.822;15.790;2023-06-19T23:41:15;67.40;;;57.77;;
22425;SDS011;11380;50.822;15.790;2023-06-19T23:46:22;67.60;;;57.50;;
22425;SDS011;11380;50.822;15.790;2023-06-19T23:51:30;69.77;;;58.65;;
22425;SDS011;11380;50.822;15.790;2023-06-19T23:56:39;70.50;;;58.43;;
